createdAt,value
2018-09-11T00:00:53.130Z,0.00
2018-09-11T00:01:53.025Z,0.00
2018-09-11T00:02:52.971Z,0.00
2018-09-11T00:03:52.896Z,0.00
2018-09-11T00:06:34.845Z,0.00
2018-09-11T00:07:35.774Z,0.00
2018-09-11T00:08:34.655Z,0.00
2018-09-11T00:09:34.602Z,0.00
2018-09-11T00:10:34.555Z,0.00
2018-09-11T00:11:34.421Z,0.00
2018-09-11T00:12:34.341Z,0.00
2018-09-11T00:13:34.260Z,0.00
2018-09-11T00:14:34.203Z,0.00
2018-09-11T00:17:16.319Z,0.00
2018-09-11T00:18:16.260Z,0.00
2018-09-11T00:19:16.171Z,0.00
2018-09-11T00:20:16.108Z,0.00
2018-09-11T00:21:15.996Z,0.00
2018-09-11T00:22:15.930Z,0.00
2018-09-11T00:23:15.965Z,0.00
2018-09-11T00:24:15.765Z,0.00
2018-09-11T00:27:39.858Z,0.00
2018-09-11T00:28:39.753Z,0.00
2018-09-11T00:29:39.685Z,0.00
2018-09-11T00:30:39.587Z,0.00
2018-09-11T00:31:39.510Z,0.00
2018-09-11T00:32:39.427Z,0.00
2018-09-11T00:33:39.379Z,0.00
2018-09-11T00:34:39.270Z,0.00
2018-09-11T00:35:39.184Z,0.00
2018-09-11T00:36:39.102Z,0.00
2018-09-11T00:37:39.026Z,0.00
2018-09-11T00:38:38.970Z,0.00
2018-09-11T00:39:38.869Z,0.00
2018-09-11T00:40:38.816Z,0.00
2018-09-11T00:41:38.712Z,0.00
2018-09-11T00:42:38.631Z,0.00
2018-09-11T00:43:38.550Z,0.00
2018-09-11T00:44:38.471Z,0.00
2018-09-11T00:45:38.410Z,0.00
2018-09-11T00:46:38.313Z,0.00
2018-09-11T00:47:38.234Z,0.00
2018-09-11T00:48:38.153Z,0.00
2018-09-11T00:49:38.073Z,0.00
2018-09-11T00:50:38.005Z,0.00
2018-09-11T00:51:37.915Z,0.00
2018-09-11T00:52:37.832Z,0.00
2018-09-11T00:53:37.742Z,0.00
2018-09-11T00:54:37.681Z,0.00
2018-09-11T00:55:37.612Z,0.00
2018-09-11T00:56:37.520Z,0.00
2018-09-11T00:57:37.440Z,0.00
2018-09-11T00:58:37.351Z,0.00
2018-09-11T01:01:19.367Z,0.00
2018-09-11T01:04:01.334Z,0.00
2018-09-11T01:05:01.264Z,0.00
2018-09-11T01:06:01.193Z,0.00
2018-09-11T01:07:01.107Z,0.00
2018-09-11T01:08:01.026Z,0.00
2018-09-11T01:10:42.847Z,0.00
2018-09-11T01:11:42.786Z,0.00
2018-09-11T01:12:42.675Z,0.00
2018-09-11T01:13:42.602Z,0.00
2018-09-11T01:14:42.522Z,0.00
2018-09-11T01:17:24.354Z,0.00
2018-09-11T01:18:24.268Z,0.00
2018-09-11T01:19:24.177Z,0.00
2018-09-11T01:20:24.116Z,0.00
2018-09-11T01:21:24.206Z,0.00
2018-09-11T01:22:23.950Z,0.00
2018-09-11T01:47:06.366Z,0.00
2018-09-11T01:48:06.339Z,0.00
2018-09-11T01:49:06.197Z,0.00
2018-09-11T01:50:06.122Z,0.00
2018-09-11T01:51:06.038Z,0.00
2018-09-11T01:53:47.857Z,0.00
2018-09-11T01:54:47.768Z,0.00
2018-09-11T01:55:47.683Z,0.00
2018-09-11T01:56:47.626Z,0.00
2018-09-11T01:57:47.540Z,0.00
2018-09-11T02:00:20.620Z,0.00
2018-09-11T02:01:18.875Z,0.00
2018-09-11T02:02:18.831Z,0.00
2018-09-11T02:03:18.736Z,0.00
2018-09-11T02:04:18.663Z,0.00
2018-09-11T02:05:18.558Z,0.00
2018-09-11T02:06:18.493Z,0.00
2018-09-11T02:07:18.400Z,0.00
2018-09-11T02:08:18.326Z,0.00
2018-09-11T02:09:18.273Z,0.00
2018-09-11T02:10:18.169Z,0.00
2018-09-11T02:11:18.080Z,0.00
2018-09-11T02:12:18.001Z,0.00
2018-09-11T02:13:17.938Z,0.00
2018-09-11T02:14:17.927Z,0.00
2018-09-11T02:15:17.787Z,0.00
2018-09-11T02:16:17.684Z,0.00
2018-09-11T02:17:17.654Z,0.00
2018-09-11T02:18:17.549Z,0.00
2018-09-11T02:19:17.436Z,0.00
2018-09-11T02:20:17.517Z,0.00
2018-09-11T02:21:17.281Z,0.00
2018-09-11T02:23:59.557Z,0.00
2018-09-11T02:24:59.452Z,0.00
2018-09-11T02:25:59.375Z,0.00
2018-09-11T02:26:59.310Z,0.00
2018-09-11T02:27:59.217Z,0.00
2018-09-11T02:28:59.166Z,0.00
2018-09-11T02:29:59.104Z,0.00
2018-09-11T02:30:58.967Z,0.00
2018-09-11T02:31:58.882Z,0.00
2018-09-11T02:32:58.818Z,0.00
2018-09-11T02:33:58.724Z,0.00
2018-09-11T02:34:58.672Z,0.00
2018-09-11T02:35:58.604Z,0.00
2018-09-11T02:36:58.496Z,0.00
2018-09-11T02:37:58.407Z,0.00
2018-09-11T02:38:58.336Z,0.00
2018-09-11T02:39:58.249Z,0.00
2018-09-11T02:40:58.202Z,0.00
2018-09-11T02:41:58.087Z,0.00
2018-09-11T02:42:58.005Z,0.00
2018-09-11T02:43:57.919Z,0.00
2018-09-11T02:44:57.863Z,0.00
2018-09-11T02:45:57.788Z,0.00
2018-09-11T02:46:57.696Z,0.00
2018-09-11T02:47:57.614Z,0.00
2018-09-11T02:48:57.533Z,0.00
2018-09-11T02:49:57.447Z,0.00
2018-09-11T02:50:57.367Z,0.00
2018-09-11T02:51:57.306Z,0.00
2018-09-11T02:52:57.216Z,0.00
2018-09-11T02:53:57.124Z,0.00
2018-09-11T02:54:57.052Z,0.00
2018-09-11T02:55:57.048Z,0.00
2018-09-11T02:56:57.903Z,0.00
2018-09-11T02:57:56.806Z,0.00
2018-09-11T02:58:56.744Z,0.00
2018-09-11T02:59:56.647Z,0.00
2018-09-11T03:00:56.604Z,0.00
2018-09-11T03:01:56.482Z,0.00
2018-09-11T03:02:56.416Z,0.00
2018-09-11T03:03:56.323Z,0.00
2018-09-11T03:04:56.251Z,0.00
2018-09-11T03:05:56.169Z,0.00
2018-09-11T03:06:56.135Z,0.00
2018-09-11T03:07:56.004Z,0.00
2018-09-11T03:10:38.039Z,0.00
2018-09-11T03:13:20.060Z,0.00
2018-09-11T03:14:19.982Z,0.00
2018-09-11T03:15:19.876Z,0.00
2018-09-11T03:16:19.815Z,0.00
2018-09-11T03:17:19.743Z,0.00
2018-09-11T03:18:19.645Z,0.00
2018-09-11T03:19:19.553Z,0.00
2018-09-11T03:20:19.481Z,0.00
2018-09-11T03:21:19.407Z,0.00
2018-09-11T03:22:19.346Z,0.00
2018-09-11T03:23:19.243Z,0.00
2018-09-11T03:26:01.552Z,0.00
2018-09-11T03:27:01.487Z,0.00
2018-09-11T03:28:01.407Z,0.00
2018-09-11T03:29:01.318Z,0.00
2018-09-11T03:30:01.232Z,0.00
2018-09-11T03:31:01.149Z,0.00
2018-09-11T03:32:01.061Z,0.00
2018-09-11T03:33:01.015Z,0.00
2018-09-11T03:34:00.897Z,0.00
2018-09-11T03:35:00.830Z,0.00
2018-09-11T03:36:00.741Z,0.00
2018-09-11T03:37:00.667Z,0.00
2018-09-11T03:38:00.599Z,0.00
2018-09-11T03:39:00.510Z,0.00
2018-09-11T03:40:00.427Z,0.00
2018-09-11T03:42:42.580Z,0.00
2018-09-11T03:43:42.474Z,0.00
2018-09-11T03:44:42.385Z,0.00
2018-09-11T03:45:42.312Z,0.00
2018-09-11T03:46:42.224Z,0.00
2018-09-11T03:47:42.155Z,0.00
2018-09-11T03:48:42.087Z,0.00
2018-09-11T03:49:42.001Z,0.00
2018-09-11T03:50:41.908Z,0.00
2018-09-11T03:51:41.844Z,0.00
2018-09-11T03:52:41.774Z,0.00
2018-09-11T03:53:42.701Z,0.00
2018-09-11T03:54:41.592Z,0.00
2018-09-11T03:55:41.547Z,0.00
2018-09-11T03:56:41.422Z,0.00
2018-09-11T03:57:41.364Z,0.00
2018-09-11T03:58:41.312Z,0.00
2018-09-11T03:59:41.198Z,0.00
2018-09-11T04:00:41.103Z,0.00
2018-09-11T04:03:23.081Z,0.00
2018-09-11T04:04:44.084Z,0.00
2018-09-11T04:05:22.916Z,0.00
2018-09-11T04:06:22.810Z,0.00
2018-09-11T04:07:22.885Z,0.00
2018-09-11T04:08:22.661Z,0.00
2018-09-11T04:09:22.685Z,0.00
2018-09-11T04:10:22.501Z,0.00
2018-09-11T04:11:22.463Z,0.00
2018-09-11T04:12:22.340Z,0.00
2018-09-11T04:13:22.360Z,0.00
2018-09-11T04:14:22.203Z,0.00
2018-09-11T04:17:04.056Z,0.00
2018-09-11T04:18:04.060Z,0.00
2018-09-11T04:19:03.893Z,0.00
2018-09-11T04:20:03.915Z,0.00
2018-09-11T04:21:03.729Z,0.00
2018-09-11T04:22:03.663Z,0.00
2018-09-11T04:23:03.576Z,0.00
2018-09-11T04:24:03.596Z,0.00
2018-09-11T04:25:03.462Z,0.00
2018-09-11T04:26:03.405Z,0.00
2018-09-11T04:27:03.261Z,0.00
2018-09-11T04:28:03.325Z,0.00
2018-09-11T04:29:03.123Z,0.00
2018-09-11T04:30:03.174Z,0.00
2018-09-11T04:31:02.993Z,0.00
2018-09-11T04:32:03.594Z,0.00
2018-09-11T04:33:02.777Z,0.00
2018-09-11T04:34:02.743Z,0.00
2018-09-11T04:35:02.635Z,0.00
2018-09-11T04:36:02.645Z,0.00
2018-09-11T04:37:02.460Z,4.00
2018-09-11T04:38:02.389Z,4.00
2018-09-11T04:39:02.302Z,4.00
2018-09-11T04:40:02.250Z,4.00
2018-09-11T04:41:02.137Z,4.00
2018-09-11T04:42:02.077Z,8.00
2018-09-11T04:43:02.050Z,4.00
2018-09-11T04:44:01.900Z,8.00
2018-09-11T04:45:01.838Z,8.00
2018-09-11T04:46:01.787Z,12.00
2018-09-11T04:47:01.676Z,12.00
2018-09-11T04:48:01.586Z,16.00
2018-09-11T04:49:01.502Z,16.00
2018-09-11T04:50:01.555Z,20.00
2018-09-11T04:51:01.349Z,24.00
2018-09-11T04:53:43.580Z,36.00
2018-09-11T04:54:43.494Z,36.00
2018-09-11T04:55:43.423Z,40.00
2018-09-11T04:56:43.337Z,44.00
2018-09-11T04:57:43.248Z,48.00
2018-09-11T04:58:43.179Z,60.00
2018-09-11T05:22:05.355Z,564.00
2018-09-11T05:23:05.158Z,628.00
2018-09-11T05:24:05.087Z,656.00
2018-09-11T05:25:04.982Z,708.00
2018-09-11T05:26:04.916Z,712.00
2018-09-11T05:27:04.874Z,720.00
2018-09-11T05:28:04.770Z,696.00
2018-09-11T05:29:04.663Z,720.00
2018-09-11T05:30:04.612Z,744.00
2018-09-11T05:31:04.513Z,784.00
2018-09-11T05:32:04.455Z,840.00
2018-09-11T05:33:04.351Z,892.00
2018-09-11T05:34:04.273Z,920.00
2018-09-11T05:35:04.193Z,948.00
2018-09-11T05:36:04.116Z,980.00
2018-09-11T05:37:04.039Z,1016.00
2018-09-11T05:38:03.993Z,1056.00
2018-09-11T05:39:03.935Z,1060.00
2018-09-11T05:40:03.803Z,1112.00
2018-09-11T05:41:03.715Z,1192.00
2018-09-11T05:42:03.647Z,1220.00
2018-09-11T05:43:03.544Z,1264.00
2018-09-11T05:45:45.589Z,1392.00
2018-09-11T05:46:45.539Z,1452.00
2018-09-11T05:47:45.443Z,1528.00
2018-09-11T05:50:27.589Z,1656.00
2018-09-11T05:51:27.556Z,1632.00
2018-09-11T05:52:27.466Z,1664.00
2018-09-11T05:53:27.380Z,1712.00
2018-09-11T05:54:27.258Z,1676.00
2018-09-11T05:55:27.197Z,1712.00
2018-09-11T05:56:27.107Z,1692.00
2018-09-11T05:57:27.035Z,1676.00
2018-09-11T05:58:27.036Z,1700.00
2018-09-11T05:59:26.868Z,1696.00
2018-09-11T06:00:26.784Z,1704.00
2018-09-11T06:01:26.738Z,1784.00
2018-09-11T06:02:26.622Z,1848.00
2018-09-11T06:03:26.570Z,1896.00
2018-09-11T06:04:26.459Z,1952.00
2018-09-11T06:05:26.400Z,2056.00
2018-09-11T06:06:26.303Z,2048.00
2018-09-11T06:07:26.393Z,2088.00
2018-09-11T06:08:26.139Z,2148.00
2018-09-11T06:11:08.133Z,2300.00
2018-09-11T06:12:09.032Z,2464.00
2018-09-11T06:13:07.931Z,2444.00
2018-09-11T06:14:07.873Z,2504.00
2018-09-11T06:15:07.767Z,2584.00
2018-09-11T06:17:49.599Z,2692.00
2018-09-11T06:18:50.658Z,2640.00
2018-09-11T06:19:49.425Z,2664.00
2018-09-11T06:20:49.364Z,2772.00
2018-09-11T06:21:49.273Z,2828.00
2018-09-11T06:22:49.192Z,2872.00
2018-09-11T06:23:49.132Z,3092.00
2018-09-11T06:24:49.049Z,3476.00
2018-09-11T06:25:49.023Z,3396.00
2018-09-11T06:29:35.121Z,3840.00
2018-09-11T06:30:35.017Z,4188.00
2018-09-11T06:31:34.945Z,4152.00
2018-09-11T06:32:34.862Z,4416.00
2018-09-11T06:33:34.787Z,3880.00
2018-09-11T06:34:34.716Z,4000.00
2018-09-11T06:46:11.543Z,6784.00
2018-09-11T06:47:11.423Z,7440.00
2018-09-11T06:48:11.349Z,7444.00
2018-09-11T06:49:11.379Z,9816.00
2018-09-11T06:50:11.209Z,9348.00
2018-09-11T06:51:11.096Z,8264.00
2018-09-11T06:53:53.108Z,9416.00
2018-09-11T06:54:53.129Z,9924.00
2018-09-11T06:55:53.163Z,8716.00
2018-09-11T06:56:52.872Z,8112.00
2018-09-11T06:57:52.797Z,8716.00
2018-09-11T06:58:52.741Z,7920.00
2018-09-11T06:59:52.648Z,7708.00
2018-09-11T07:00:52.589Z,10112.00
2018-09-11T07:01:52.520Z,10660.00
2018-09-11T07:02:52.394Z,11280.00
2018-09-11T07:03:52.322Z,11376.00
2018-09-11T07:04:52.304Z,10808.00
2018-09-11T07:05:52.188Z,9784.00
2018-09-11T07:06:52.085Z,7844.00
2018-09-11T07:07:52.092Z,6868.00
2018-09-11T07:08:51.923Z,5876.00
2018-09-11T07:09:51.841Z,5676.00
2018-09-11T07:10:51.816Z,5908.00
2018-09-11T07:11:51.709Z,6464.00
2018-09-11T07:12:51.618Z,7432.00
2018-09-11T07:13:51.533Z,8192.00
2018-09-11T07:14:51.537Z,6768.00
2018-09-11T07:15:51.525Z,6764.00
2018-09-11T07:16:51.399Z,6604.00
2018-09-11T07:17:51.230Z,6572.00
2018-09-11T07:18:51.161Z,6728.00
2018-09-11T07:19:51.168Z,7496.00
2018-09-11T07:20:52.015Z,8052.00
2018-09-11T07:21:51.083Z,9108.00
2018-09-11T07:22:50.857Z,8128.00
2018-09-11T07:23:50.787Z,6612.00
2018-09-11T07:24:50.733Z,7904.00
2018-09-11T07:25:51.219Z,9384.00
2018-09-11T07:26:50.883Z,10312.00
2018-09-11T07:27:50.642Z,9264.00
2018-09-11T07:28:51.150Z,8484.00
2018-09-11T07:29:50.319Z,8292.00
2018-09-11T07:30:50.231Z,9676.00
2018-09-11T07:31:50.177Z,10060.00
2018-09-11T07:32:50.093Z,9560.00
2018-09-11T07:33:50.007Z,8876.00
2018-09-11T07:36:32.169Z,5116.00
2018-09-11T07:37:33.475Z,4424.00
2018-09-11T07:38:31.967Z,4320.00
2018-09-11T07:39:31.892Z,4296.00
2018-09-11T07:40:31.808Z,5080.00
2018-09-11T07:41:31.735Z,5204.00
2018-09-11T07:42:31.747Z,5656.00
2018-09-11T07:43:31.604Z,7380.00
2018-09-11T07:44:31.497Z,9080.00
2018-09-11T07:45:31.495Z,10240.00
2018-09-11T07:46:31.341Z,9908.00
2018-09-11T07:47:31.286Z,10436.00
2018-09-11T07:48:31.208Z,8376.00
2018-09-11T07:49:31.112Z,10144.00
2018-09-11T07:50:31.017Z,17376.00
2018-09-11T07:51:30.963Z,13716.00
2018-09-11T07:52:30.984Z,10612.00
2018-09-11T07:53:30.807Z,14288.00
2018-09-11T07:54:30.708Z,24768.00
2018-09-11T07:55:30.639Z,14116.00
2018-09-11T07:56:30.578Z,25024.00
2018-09-11T07:57:30.522Z,22112.00
2018-09-11T07:58:30.416Z,22048.00
2018-09-11T08:01:12.645Z,20512.00
2018-09-11T08:02:12.576Z,23072.00
2018-09-11T08:03:12.571Z,23840.00
2018-09-11T08:04:12.414Z,24640.00
2018-09-11T08:05:12.355Z,25280.00
2018-09-11T08:06:12.250Z,16736.00
2018-09-11T08:07:12.177Z,27232.00
2018-09-11T08:08:12.129Z,28224.00
2018-09-11T08:09:12.012Z,29472.00
2018-09-11T08:11:54.815Z,30048.00
2018-09-11T08:12:54.772Z,30272.00
2018-09-11T08:13:53.976Z,30432.00
2018-09-11T08:14:53.918Z,31008.00
2018-09-11T08:15:53.836Z,31296.00
2018-09-11T08:16:53.776Z,31680.00
2018-09-11T08:17:53.721Z,32864.00
2018-09-11T08:18:53.649Z,28032.00
2018-09-11T08:19:53.542Z,27712.00
2018-09-11T08:20:53.469Z,27328.00
2018-09-11T08:21:53.386Z,25920.00
2018-09-11T08:22:53.320Z,25056.00
2018-09-11T08:23:53.278Z,28864.00
2018-09-11T08:24:53.201Z,32352.00
2018-09-11T08:25:53.104Z,11628.00
2018-09-11T08:26:53.040Z,19424.00
2018-09-11T08:27:52.971Z,19360.00
2018-09-11T08:28:53.911Z,27200.00
2018-09-11T08:29:52.814Z,27168.00
2018-09-11T08:30:52.757Z,32160.00
2018-09-11T08:31:52.666Z,31968.00
2018-09-11T08:32:52.597Z,35872.00
2018-09-11T08:33:52.550Z,33120.00
2018-09-11T08:34:52.468Z,35456.00
2018-09-11T08:35:52.485Z,39968.00
2018-09-11T08:38:34.648Z,25920.00
2018-09-11T08:39:34.620Z,38848.00
2018-09-11T08:40:34.489Z,39008.00
2018-09-11T08:41:34.436Z,39776.00
2018-09-11T08:42:34.363Z,40960.00
2018-09-11T08:43:34.296Z,37280.00
2018-09-11T08:44:34.242Z,45216.00
2018-09-11T08:47:16.153Z,52864.00
2018-09-11T08:48:16.089Z,42432.00
2018-09-11T08:49:16.055Z,42464.00
2018-09-11T08:50:15.936Z,44288.00
2018-09-11T08:51:15.860Z,42944.00
2018-09-11T08:53:58.296Z,44480.00
2018-09-11T08:54:58.144Z,52064.00
2018-09-11T08:55:58.146Z,44928.00
2018-09-11T08:56:58.087Z,45024.00
2018-09-11T08:57:57.879Z,48256.00
2018-09-11T08:58:58.776Z,47616.00
2018-09-11T08:59:57.751Z,47808.00
2018-09-11T09:00:57.746Z,42464.00
2018-09-11T09:01:57.602Z,48928.00
2018-09-11T09:02:57.525Z,17952.00
2018-09-11T09:03:57.608Z,47680.00
2018-09-11T09:04:57.413Z,30976.00
2018-09-11T09:08:42.705Z,45728.00
2018-09-11T09:09:42.621Z,51328.00
2018-09-11T09:10:42.548Z,30688.00
2018-09-11T09:11:42.452Z,39104.00
2018-09-11T09:12:42.402Z,21056.00
2018-09-11T09:13:42.316Z,19840.00
2018-09-11T09:14:42.283Z,51616.00
2018-09-11T09:15:42.362Z,50496.00
2018-09-11T09:16:42.113Z,19744.00
2018-09-11T09:17:42.044Z,29792.00
2018-09-11T09:18:42.057Z,54560.00
2018-09-11T09:19:41.918Z,53056.00
2018-09-11T09:20:41.853Z,54784.00
2018-09-11T09:21:41.924Z,18464.00
2018-09-11T09:24:23.677Z,50144.00
2018-09-11T09:25:23.826Z,43584.00
2018-09-11T09:26:23.556Z,60480.00
2018-09-11T09:27:23.489Z,57696.00
2018-09-11T09:28:23.384Z,61088.00
2018-09-11T09:52:45.427Z,82240.00
2018-09-11T09:53:45.298Z,61184.00
2018-09-11T09:54:45.281Z,58240.00
2018-09-11T09:57:27.216Z,6816.00
2018-09-11T09:58:27.124Z,60992.00
2018-09-11T09:59:27.078Z,10272.00
2018-09-11T10:00:27.003Z,33056.00
2018-09-11T10:01:26.900Z,63840.00
2018-09-11T10:02:26.876Z,92096.00
2018-09-11T10:03:26.778Z,59872.00
2018-09-11T10:04:26.745Z,65504.00
2018-09-11T10:05:26.621Z,67328.00
2018-09-11T10:08:08.709Z,76960.00
2018-09-11T10:10:50.686Z,64864.00
2018-09-11T10:11:50.640Z,68192.00
2018-09-11T10:12:50.567Z,66944.00
2018-09-11T10:13:50.479Z,79520.00
2018-09-11T10:14:50.413Z,17888.00
2018-09-11T10:17:32.753Z,89632.00
2018-09-11T10:18:32.676Z,77376.00
2018-09-11T10:19:32.543Z,77088.00
2018-09-11T10:20:32.492Z,75616.00
2018-09-11T10:21:32.494Z,77664.00
2018-09-11T10:22:32.352Z,79328.00
2018-09-11T10:23:32.322Z,78528.00
2018-09-11T10:24:32.231Z,30592.00
2018-09-11T10:25:32.165Z,23808.00
2018-09-11T10:28:14.229Z,77664.00
2018-09-11T10:29:14.143Z,78208.00
2018-09-11T10:39:12.192Z,71200.00
2018-09-11T10:40:12.097Z,24960.00
2018-09-11T10:42:54.199Z,73408.00
2018-09-11T10:43:54.162Z,75360.00
2018-09-11T10:44:54.062Z,78784.00
2018-09-11T10:45:54.004Z,74848.00
2018-09-11T10:46:53.922Z,27616.00
2018-09-11T10:47:53.857Z,77184.00
2018-09-11T10:48:53.877Z,79840.00
2018-09-11T10:49:53.846Z,100576.00
2018-09-11T10:50:53.666Z,81728.00
2018-09-11T10:51:53.635Z,81920.00
2018-09-11T10:52:53.540Z,21952.00
2018-09-11T10:55:35.789Z,2464.00
2018-09-11T10:56:35.641Z,66624.00
2018-09-11T10:57:35.554Z,68512.00
2018-09-11T10:58:35.504Z,71008.00
2018-09-11T10:59:35.453Z,78784.00
2018-09-11T11:02:17.708Z,78144.00
2018-09-11T11:06:38.704Z,78688.00
2018-09-11T11:09:20.761Z,85312.00
2018-09-11T11:10:20.672Z,80352.00
2018-09-11T11:11:20.593Z,82816.00
2018-09-11T11:12:20.508Z,86240.00
2018-09-11T11:13:20.479Z,87520.00
2018-09-11T11:14:20.390Z,81888.00
2018-09-11T11:15:20.300Z,82304.00
2018-09-11T11:16:20.265Z,83072.00
2018-09-11T11:17:20.175Z,82176.00
2018-09-11T11:18:20.122Z,84640.00
2018-09-11T11:19:20.047Z,85728.00
2018-09-11T11:20:21.002Z,81888.00
2018-09-11T11:21:19.920Z,83232.00
2018-09-11T11:22:19.838Z,148640.00
2018-09-11T11:23:19.762Z,7008.00
2018-09-11T11:24:19.715Z,84032.00
2018-09-11T11:25:19.709Z,86944.00
2018-09-11T11:26:19.592Z,53984.00
2018-09-11T11:27:19.575Z,82624.00
2018-09-11T11:28:19.445Z,82592.00
2018-09-11T11:29:19.396Z,80608.00
2018-09-11T11:30:19.321Z,83552.00
2018-09-11T11:31:19.230Z,83296.00
2018-09-11T11:32:19.192Z,86496.00
2018-09-11T11:33:19.128Z,73888.00
2018-09-11T11:34:19.048Z,83456.00
2018-09-11T11:35:18.993Z,81536.00
2018-09-11T11:38:01.227Z,84544.00
2018-09-11T11:39:01.155Z,81440.00
2018-09-11T11:40:01.085Z,73760.00
2018-09-11T11:41:01.064Z,86432.00
2018-09-11T11:42:00.953Z,81408.00
2018-09-11T11:43:00.890Z,80800.00
2018-09-11T11:44:00.861Z,82688.00
2018-09-11T11:45:00.756Z,86816.00
2018-09-11T11:46:00.708Z,86496.00
2018-09-11T11:47:00.621Z,88096.00
2018-09-11T11:48:00.554Z,85728.00
2018-09-11T11:49:01.512Z,84160.00
2018-09-11T11:50:00.416Z,86848.00
2018-09-11T11:51:01.372Z,75616.00
2018-09-11T11:52:00.275Z,87104.00
2018-09-11T11:53:00.236Z,0.00
2018-09-11T11:54:00.149Z,91168.00
2018-09-11T11:55:00.155Z,94400.00
2018-09-11T11:56:00.042Z,96128.00
2018-09-11T11:57:00.970Z,91936.00
2018-09-11T11:57:59.886Z,86560.00
2018-09-11T11:58:59.864Z,69888.00
2018-09-11T11:59:59.755Z,10528.00
2018-09-11T12:00:59.697Z,8484.00
2018-09-11T12:01:59.683Z,7224.00
2018-09-11T12:04:41.729Z,6404.00
2018-09-11T12:07:23.746Z,6384.00
2018-09-11T12:10:05.732Z,6320.00
2018-09-11T12:11:05.679Z,6196.00
2018-09-11T12:12:05.606Z,6516.00
2018-09-11T12:13:05.552Z,6416.00
2018-09-11T12:14:05.444Z,6600.00
2018-09-11T12:15:05.382Z,6684.00
2018-09-11T12:16:05.327Z,6944.00
2018-09-11T12:17:05.345Z,6780.00
2018-09-11T12:18:05.171Z,6440.00
2018-09-11T12:19:05.182Z,6316.00
2018-09-11T12:20:05.019Z,6304.00
2018-09-11T12:21:04.953Z,6492.00
2018-09-11T12:22:04.895Z,6524.00
2018-09-11T12:23:04.844Z,6516.00
2018-09-11T12:24:04.723Z,6500.00
2018-09-11T12:25:04.681Z,6480.00
2018-09-11T12:26:04.610Z,6220.00
2018-09-11T12:28:46.751Z,6404.00
2018-09-11T12:29:46.669Z,6212.00
2018-09-11T12:30:46.589Z,6204.00
2018-09-11T12:31:46.555Z,6024.00
2018-09-11T12:38:27.391Z,5404.00
2018-09-11T12:39:27.319Z,5252.00
2018-09-11T12:40:27.230Z,5188.00
2018-09-11T12:41:27.156Z,5292.00
2018-09-11T12:42:27.099Z,4804.00
2018-09-11T12:43:27.033Z,4996.00
2018-09-11T12:44:26.933Z,4884.00
2018-09-11T12:45:26.858Z,5140.00
2018-09-11T12:46:27.039Z,4948.00
2018-09-11T12:47:27.263Z,5240.00
2018-09-11T12:48:26.783Z,4948.00
2018-09-11T12:49:26.566Z,4888.00
2018-09-11T12:50:26.489Z,4792.00
2018-09-11T12:53:08.772Z,4596.00
2018-09-11T12:54:09.693Z,4572.00
2018-09-11T12:55:08.596Z,4648.00
2018-09-11T12:56:08.529Z,4684.00
2018-09-11T12:57:08.446Z,4564.00
2018-09-11T12:58:08.402Z,4328.00
2018-09-11T12:59:08.297Z,4240.00
2018-09-11T13:00:08.248Z,4156.00
2018-09-11T13:01:08.158Z,4112.00
2018-09-11T13:02:08.079Z,4012.00
2018-09-11T13:03:07.995Z,3976.00
2018-09-11T13:04:07.955Z,3952.00
2018-09-11T13:05:07.844Z,3792.00
2018-09-11T13:07:49.754Z,3764.00
2018-09-11T13:08:49.717Z,3696.00
2018-09-11T13:09:49.598Z,3632.00
2018-09-11T13:12:31.750Z,3572.00
2018-09-11T13:13:31.694Z,3580.00
2018-09-11T13:14:31.625Z,3500.00
2018-09-11T13:15:31.531Z,3468.00
2018-09-11T13:16:31.450Z,3488.00
2018-09-11T13:19:13.850Z,3416.00
2018-09-11T13:21:55.761Z,3332.00
2018-09-11T13:22:55.693Z,3384.00
2018-09-11T13:23:55.627Z,2932.00
2018-09-11T13:24:55.563Z,3192.00
2018-09-11T13:25:55.450Z,3092.00
2018-09-11T13:28:37.755Z,3080.00
2018-09-11T13:29:37.713Z,3008.00
2018-09-11T13:30:37.617Z,2960.00
2018-09-11T13:31:37.536Z,3024.00
2018-09-11T13:32:37.462Z,2920.00
2018-09-11T13:33:37.425Z,2904.00
2018-09-11T13:34:37.323Z,2904.00
2018-09-11T13:37:19.259Z,2736.00
2018-09-11T13:38:19.190Z,2792.00
2018-09-11T13:39:19.103Z,2784.00
2018-09-11T13:40:19.072Z,2748.00
2018-09-11T13:41:18.964Z,2788.00
2018-09-11T13:44:01.263Z,2816.00
2018-09-11T13:45:01.208Z,2940.00
2018-09-11T13:46:01.109Z,2836.00
2018-09-11T13:47:01.075Z,2756.00
2018-09-11T13:48:00.979Z,2800.00
2018-09-11T13:49:00.905Z,2824.00
2018-09-11T13:50:00.830Z,2812.00
2018-09-11T13:51:01.761Z,2796.00
2018-09-11T13:52:00.674Z,2868.00
2018-09-11T13:53:00.637Z,2744.00
2018-09-11T13:54:00.511Z,2744.00
2018-09-11T13:56:42.955Z,2656.00
2018-09-11T13:57:42.734Z,2616.00
2018-09-11T13:58:42.612Z,2596.00
2018-09-11T13:59:42.555Z,2592.00
2018-09-11T14:00:42.487Z,2680.00
2018-09-11T14:01:42.417Z,2708.00
2018-09-11T14:02:42.459Z,2652.00
2018-09-11T14:03:42.250Z,2600.00
2018-09-11T14:04:42.170Z,2616.00
2018-09-11T14:05:42.127Z,2612.00
2018-09-11T14:06:42.038Z,2648.00
2018-09-11T14:07:41.945Z,2620.00
2018-09-11T14:08:41.904Z,2484.00
2018-09-11T14:11:24.901Z,2496.00
2018-09-11T14:12:23.711Z,2512.00
2018-09-11T14:13:23.624Z,2452.00
2018-09-11T14:14:23.551Z,2304.00
2018-09-11T14:15:23.467Z,2436.00
2018-09-11T14:16:23.433Z,2432.00
2018-09-11T14:17:23.329Z,2420.00
2018-09-11T14:18:23.256Z,2440.00
2018-09-11T14:19:23.172Z,2492.00
2018-09-11T14:20:23.111Z,2428.00
2018-09-11T14:21:23.109Z,2508.00
2018-09-11T14:22:22.979Z,2428.00
2018-09-11T14:23:22.876Z,2524.00
2018-09-11T14:24:22.801Z,2144.00
2018-09-11T14:25:22.723Z,2120.00
2018-09-11T14:26:22.658Z,2144.00
2018-09-11T14:27:22.622Z,2144.00
2018-09-11T14:28:22.510Z,2196.00
2018-09-11T14:29:22.474Z,2232.00
2018-09-11T14:30:22.377Z,2268.00
2018-09-11T14:31:22.304Z,2244.00
2018-09-11T14:32:22.219Z,2224.00
2018-09-11T14:33:22.125Z,2204.00
2018-09-11T14:34:22.113Z,2180.00
2018-09-11T14:35:21.983Z,2212.00
2018-09-11T14:36:21.917Z,2236.00
2018-09-11T14:37:21.849Z,2252.00
2018-09-11T14:40:03.792Z,2264.00
2018-09-11T14:41:03.704Z,2216.00
2018-09-11T14:42:03.653Z,2176.00
2018-09-11T14:43:03.588Z,2136.00
2018-09-11T14:44:03.485Z,2116.00
2018-09-11T14:45:03.421Z,2144.00
2018-09-11T14:46:03.346Z,2236.00
2018-09-11T14:47:04.285Z,2368.00
2018-09-11T14:48:03.187Z,2304.00
2018-09-11T14:49:03.112Z,2296.00
2018-09-11T14:50:03.069Z,2388.00
2018-09-11T14:51:02.980Z,2344.00
2018-09-11T14:52:02.900Z,2364.00
2018-09-11T14:53:02.837Z,2364.00
2018-09-11T14:54:02.751Z,2364.00
2018-09-11T14:55:02.674Z,2484.00
2018-09-11T14:56:02.618Z,2332.00
2018-09-11T14:58:44.800Z,2520.00
2018-09-11T14:59:44.723Z,2268.00
2018-09-11T15:00:44.634Z,2236.00
2018-09-11T15:01:44.573Z,2264.00
2018-09-11T15:02:44.512Z,2316.00
2018-09-11T15:03:45.496Z,2140.00
2018-09-11T15:04:44.339Z,2188.00
2018-09-11T15:05:44.276Z,2112.00
2018-09-11T15:06:44.216Z,2136.00
2018-09-11T15:07:44.151Z,2116.00
2018-09-11T15:08:44.072Z,2188.00
2018-09-11T15:09:43.980Z,2088.00
2018-09-11T15:10:43.902Z,2100.00
2018-09-11T15:13:25.812Z,2096.00
2018-09-11T15:14:25.753Z,2076.00
2018-09-11T15:15:25.641Z,2156.00
2018-09-11T15:16:25.582Z,1960.00
2018-09-11T15:17:25.505Z,1916.00
2018-09-11T15:18:25.584Z,2100.00
2018-09-11T15:19:25.343Z,2000.00
2018-09-11T15:20:25.277Z,1880.00
2018-09-11T15:21:25.192Z,1924.00
2018-09-11T15:22:25.124Z,1960.00
2018-09-11T15:23:25.072Z,1964.00
2018-09-11T15:24:24.991Z,1948.00
2018-09-11T15:25:24.899Z,1996.00
2018-09-11T15:28:32.323Z,2008.00
2018-09-11T15:29:32.270Z,2104.00
2018-09-11T15:30:32.162Z,2048.00
2018-09-11T15:31:32.076Z,2064.00
2018-09-11T15:32:32.005Z,2060.00
2018-09-11T15:33:31.952Z,2020.00
2018-09-11T15:34:32.881Z,1908.00
2018-09-11T15:35:31.792Z,1964.00
2018-09-11T15:36:31.703Z,1996.00
2018-09-11T15:37:31.650Z,1976.00
2018-09-11T15:38:31.744Z,1948.00
2018-09-11T15:39:31.741Z,1960.00
2018-09-11T15:40:31.803Z,1892.00
2018-09-11T15:41:31.645Z,2004.00
2018-09-11T15:42:31.263Z,2144.00
2018-09-11T15:43:31.176Z,1968.00